Hovedside
METAR-TAF:

METAR-TAF

Lufthavner :

Heidrunfeltet

Heidrun, Norge

breddegrad: 65-19-30N, lengdegrad: 007-19-36E, høyde over havet: 0 m

Gjeldene værobservasjon

Denne rapporten ble laget for 45 minutter siden, klokken 03:20 UTC
Vind 17 kt fra Nord
Temperatur 1°C
Luftfuktighet 47%
Trykk 1013 hPa
Sikt 10 km eller mer
Brutte skyer i en høyde av 3500 ft

METAR: ENHE 200320Z 35017KT 9999 BKN035 01/M09 Q1013 W///S5

Tid: 05:05 (04:05 UTC)

Varsel

Denne rapporten ble laget for 2 timer og 5 minutter siden, klokken 02:00 UTC
Varsel gyldig fra 20. klokken 03 UTC til 20. klokken 12 UTC
Vind 22 kt fra Nord
Sikt 10 km eller mer
Få skyer i en høyde av 2000 ft
Brutte skyer i en høyde av 3000 ft
Blir
fra 20. klokken 04 UTC til 20. klokken 06 UTC
Vind 12 kt fra Nord-nordvest
Blir
fra 20. klokken 10 UTC til 20. klokken 12 UTC
Vind 5 kt fra skiftende retning

TAF: ENHE 200200Z 2003/2012 35022KT 9999 FEW020 BKN030 BECMG 2004/2006 34012KT BECMG 2010/2012 VRB05KT

Værobservasjoner og værvarsel for over 4000 flyplasser (METAR- og TAF-rapporter).

Tilgjengelige stasjoner er representert av de røde og gule prikkene på kartet.

Hold musepekeren over prikken for å se navnet på stasjonen.

Klikk så for å se værobservasjoner og -varsler.

For å forandre kartet kan du klikke på den grønne knappen med svart kryss for å zoome inn, på den grønne knappen med strek for å zoome ut, eller på de grønne pilene for å se tilstøtende kart.


METAR-TAF: